Waterbury Center, VT (05677)

2:08 AM EST on December 26, 2014 (GMT -0500)
Evergreen Woods | Change Station
CLOSE
Current Station
Personal Weather Station
Location: Waterbury Center, VT
Elevation: 1037 ft
Nearby Weather Stations

Elev 1037 ft 44.37 °N, 72.70 °W | Updated 7 seconds ago

Overcast
Overcast
37.9 °F
Feels Like 32 °F
N
9.0
Wind Variable Wind from West
Gusts 19.0 mph

Today
High -- | Low -- °F
--% Chance of Precip.
Yesterday
High -- | Low -- °F
Precip. -- in
7:25 AM 4:17 PM
Waxing Crescent, 23% visible
Pressure 30.01 in
Visibility 10.0 miles
Clouds Overcast 4300 ft
Windchill 32 °F
Dew Point 29 °F
Humidity 69%
Rainfall 0.00 in
Snow Depth Not available.
UV 0 out of 12
Pollen .10 out of 12
Air Quality Not available.
Flu Activity Not available.
METAR KMVL 260654Z AUTO VRB04KT 10SM OVC043 04/M04 A2998 RMK AO2 SLP160 T00441039 TSNO

More Conditions Fewer Conditions

Pressure 30.01 in
Visibility 10.0 miles
Clouds Overcast 4300 ft
Windchill 32 °F
Dew Point 29 °F
Humidity 69%
Rainfall 0.00 in
Snow Depth Not available.
UV 0 out of 12
Pollen .10 out of 12
Air Quality Not available.
Flu Activity Not available.
METAR KMVL 260654Z AUTO VRB04KT 10SM OVC043 04/M04 A2998 RMK AO2 SLP160 T00441039 TSNO

More Conditions Fewer Conditions

10-Day Weather Forecast

Almanac

Astronomy

Dec. 26, 2014 Rise Set
Actual Time
Civil Twilight
Nautical Twilight
Astronomical Twilight
Moon
Length of Visible Light
Length of Day
Tomorrow will be .
, % of the Moon is Illuminated

Today's Extremes

State Highs State Lows

Community

WunderPhotos

Upload Photos

1,780,569 photos uploaded!

WunderBlogs® & News

Nearby

Air Quality

  Air Quality AQ Index Pollutant
Not available.

Snow Depth

Station Depth Elevation

Earthquake Activity

City Distance Mag. Time & Date
Minimum magnitude displayed is 2.5.

Coastal Water Temperatures

Place Temperature

Nearby Weather Stations